sensor_id;sensor_type;location;lat;lon;timestamp;temperature;humidity
16999;DHT22;10211;49.476;11.010;2023-02-14T00:01:36;2.80;99.90
16999;DHT22;10211;49.476;11.010;2023-02-14T00:04:04;2.80;99.90
16999;DHT22;10211;49.476;11.010;2023-02-14T00:06:32;2.80;99.90
16999;DHT22;10211;49.476;11.010;2023-02-14T00:09:00;2.80;99.90
16999;DHT22;10211;49.476;11.010;2023-02-14T00:11:27;2.80;99.90
16999;DHT22;10211;49.476;11.010;2023-02-14T00:13:54;2.80;99.90
16999;DHT22;10211;49.476;11.010;2023-02-14T00:16:38;2.80;99.90
16999;DHT22;10211;49.476;11.010;2023-02-14T00:19:07;2.80;99.90
16999;DHT22;10211;49.476;11.010;2023-02-14T00:21:35;2.80;99.90
16999;DHT22;10211;49.476;11.010;2023-02-14T00:24:03;2.80;99.90
16999;DHT22;10211;49.476;11.010;2023-02-14T00:26:30;2.80;99.90
16999;DHT22;10211;49.476;11.010;2023-02-14T00:28:56;2.80;99.90
16999;DHT22;10211;49.476;11.010;2023-02-14T00:31:23;2.80;99.90
16999;DHT22;10211;49.476;11.010;2023-02-14T00:33:50;2.80;99.90
16999;DHT22;10211;49.476;11.010;2023-02-14T00:36:19;2.80;99.90
16999;DHT22;10211;49.476;11.010;2023-02-14T00:38:48;2.80;99.90
16999;DHT22;10211;49.476;11.010;2023-02-14T00:41:15;2.80;99.90
16999;DHT22;10211;49.476;11.010;2023-02-14T00:43:44;2.80;99.90
16999;DHT22;10211;49.476;11.010;2023-02-14T00:46:12;2.80;99.90
16999;DHT22;10211;49.476;11.010;2023-02-14T00:48:38;2.80;99.90
16999;DHT22;10211;49.476;11.010;2023-02-14T00:51:05;2.80;99.90
16999;DHT22;10211;49.476;11.010;2023-02-14T00:53:34;2.70;99.90
16999;DHT22;10211;49.476;11.010;2023-02-14T00:56:02;2.70;99.90
16999;DHT22;10211;49.476;11.010;2023-02-14T00:58:36;2.70;99.90
16999;DHT22;10211;49.476;11.010;2023-02-14T01:01:03;2.70;99.90
16999;DHT22;10211;49.476;11.010;2023-02-14T01:03:31;2.70;99.90
16999;DHT22;10211;49.476;11.010;2023-02-14T01:05:58;2.70;99.90
16999;DHT22;10211;49.476;11.010;2023-02-14T01:08:27;2.70;99.90
16999;DHT22;10211;49.476;11.010;2023-02-14T01:11:08;2.70;99.90
16999;DHT22;10211;49.476;11.010;2023-02-14T01:13:34;2.70;99.90
16999;DHT22;10211;49.476;11.010;2023-02-14T01:16:05;2.70;99.90
16999;DHT22;10211;49.476;11.010;2023-02-14T01:18:32;2.70;99.90
16999;DHT22;10211;49.476;11.010;2023-02-14T01:21:12;2.70;99.90
16999;DHT22;10211;49.476;11.010;2023-02-14T01:23:40;2.70;99.90
16999;DHT22;10211;49.476;11.010;2023-02-14T01:26:12;2.70;99.90
16999;DHT22;10211;49.476;11.010;2023-02-14T01:28:39;2.70;99.90
16999;DHT22;10211;49.476;11.010;2023-02-14T01:31:09;2.70;99.90
16999;DHT22;10211;49.476;11.010;2023-02-14T01:33:36;2.70;99.90
16999;DHT22;10211;49.476;11.010;2023-02-14T01:36:04;2.70;99.90
16999;DHT22;10211;49.476;11.010;2023-02-14T01:38:31;2.70;99.90
16999;DHT22;10211;49.476;11.010;2023-02-14T01:40:58;2.70;99.90
16999;DHT22;10211;49.476;11.010;2023-02-14T01:43:27;2.60;99.90
16999;DHT22;10211;49.476;11.010;2023-02-14T01:45:54;2.70;99.90
16999;DHT22;10211;49.476;11.010;2023-02-14T01:48:21;2.60;99.90
16999;DHT22;10211;49.476;11.010;2023-02-14T01:50:49;2.60;99.90
16999;DHT22;10211;49.476;11.010;2023-02-14T01:53:22;2.60;99.90
16999;DHT22;10211;49.476;11.010;2023-02-14T01:55:52;2.60;99.90
16999;DHT22;10211;49.476;11.010;2023-02-14T01:58:24;2.70;99.90
16999;DHT22;10211;49.476;11.010;2023-02-14T02:00:55;2.60;99.90
16999;DHT22;10211;49.476;11.010;2023-02-14T02:03:28;2.60;99.90
16999;DHT22;10211;49.476;11.010;2023-02-14T02:06:00;2.60;99.90
16999;DHT22;10211;49.476;11.010;2023-02-14T02:08:28;2.60;99.90
16999;DHT22;10211;49.476;11.010;2023-02-14T02:10:57;2.60;99.90
16999;DHT22;10211;49.476;11.010;2023-02-14T02:13:23;2.60;99.90
16999;DHT22;10211;49.476;11.010;2023-02-14T02:16:04;2.50;99.90
16999;DHT22;10211;49.476;11.010;2023-02-14T02:18:43;2.50;99.90
16999;DHT22;10211;49.476;11.010;2023-02-14T02:24:26;2.40;99.90
16999;DHT22;10211;49.476;11.010;2023-02-14T02:27:24;2.40;99.90
16999;DHT22;10211;49.476;11.010;2023-02-14T02:33:30;2.30;99.90
16999;DHT22;10211;49.476;11.010;2023-02-14T02:36:40;2.40;99.90
16999;DHT22;10211;49.476;11.010;2023-02-14T02:39:20;2.40;99.90
16999;DHT22;10211;49.476;11.010;2023-02-14T02:42:01;2.40;99.90
16999;DHT22;10211;49.476;11.010;2023-02-14T02:44:36;2.40;99.90
16999;DHT22;10211;49.476;11.010;2023-02-14T02:47:10;2.40;99.90
16999;DHT22;10211;49.476;11.010;2023-02-14T02:49:44;2.40;99.90
16999;DHT22;10211;49.476;11.010;2023-02-14T02:52:43;2.40;99.90
16999;DHT22;10211;49.476;11.010;2023-02-14T02:55:37;2.30;99.90
16999;DHT22;10211;49.476;11.010;2023-02-14T02:58:29;2.30;99.90
16999;DHT22;10211;49.476;11.010;2023-02-14T03:00:57;2.30;99.90
16999;DHT22;10211;49.476;11.010;2023-02-14T03:03:28;2.30;99.90
16999;DHT22;10211;49.476;11.010;2023-02-14T03:06:13;2.20;99.90
16999;DHT22;10211;49.476;11.010;2023-02-14T03:08:42;2.20;99.90
16999;DHT22;10211;49.476;11.010;2023-02-14T03:11:09;2.20;99.90
16999;DHT22;10211;49.476;11.010;2023-02-14T03:13:58;2.20;99.90
16999;DHT22;10211;49.476;11.010;2023-02-14T03:16:35;2.20;99.90
16999;DHT22;10211;49.476;11.010;2023-02-14T03:19:20;2.20;99.90
16999;DHT22;10211;49.476;11.010;2023-02-14T03:22:18;2.20;99.90
16999;DHT22;10211;49.476;11.010;2023-02-14T03:24:55;2.10;99.90
16999;DHT22;10211;49.476;11.010;2023-02-14T03:27:26;2.10;99.90
16999;DHT22;10211;49.476;11.010;2023-02-14T03:29:58;2.10;99.90
16999;DHT22;10211;49.476;11.010;2023-02-14T03:32:32;2.10;99.90
16999;DHT22;10211;49.476;11.010;2023-02-14T03:35:10;2.10;99.90
16999;DHT22;10211;49.476;11.010;2023-02-14T03:37:43;2.00;99.90
16999;DHT22;10211;49.476;11.010;2023-02-14T03:40:21;2.00;99.90
16999;DHT22;10211;49.476;11.010;2023-02-14T03:42:51;2.00;99.90
16999;DHT22;10211;49.476;11.010;2023-02-14T03:45:24;2.00;99.90
16999;DHT22;10211;49.476;11.010;2023-02-14T03:47:55;2.00;99.90
16999;DHT22;10211;49.476;11.010;2023-02-14T03:50:24;2.00;99.90
16999;DHT22;10211;49.476;11.010;2023-02-14T03:52:54;2.00;99.90
16999;DHT22;10211;49.476;11.010;2023-02-14T03:55:27;1.90;99.90
16999;DHT22;10211;49.476;11.010;2023-02-14T03:58:00;1.90;99.90
16999;DHT22;10211;49.476;11.010;2023-02-14T04:00:30;2.00;99.90
16999;DHT22;10211;49.476;11.010;2023-02-14T04:03:04;2.00;99.90
16999;DHT22;10211;49.476;11.010;2023-02-14T04:05:32;2.00;99.90
16999;DHT22;10211;49.476;11.010;2023-02-14T04:07:59;1.90;99.90
16999;DHT22;10211;49.476;11.010;2023-02-14T04:10:27;2.00;99.90
16999;DHT22;10211;49.476;11.010;2023-02-14T04:12:54;2.00;99.90
16999;DHT22;10211;49.476;11.010;2023-02-14T04:15:21;2.00;99.90
16999;DHT22;10211;49.476;11.010;2023-02-14T04:17:47;2.00;99.90
16999;DHT22;10211;49.476;11.010;2023-02-14T04:20:31;2.10;99.90
16999;DHT22;10211;49.476;11.010;2023-02-14T04:22:58;2.10;99.90
16999;DHT22;10211;49.476;11.010;2023-02-14T04:25:26;2.10;99.90
16999;DHT22;10211;49.476;11.010;2023-02-14T04:27:53;2.10;99.90
16999;DHT22;10211;49.476;11.010;2023-02-14T04:30:20;2.10;99.90
16999;DHT22;10211;49.476;11.010;2023-02-14T04:32:48;2.00;99.90
16999;DHT22;10211;49.476;11.010;2023-02-14T04:35:15;2.00;99.90
16999;DHT22;10211;49.476;11.010;2023-02-14T04:37:42;2.00;99.90
16999;DHT22;10211;49.476;11.010;2023-02-14T04:40:09;1.90;99.90
16999;DHT22;10211;49.476;11.010;2023-02-14T04:42:38;1.90;99.90
16999;DHT22;10211;49.476;11.010;2023-02-14T04:45:05;1.90;99.90
16999;DHT22;10211;49.476;11.010;2023-02-14T04:47:32;1.80;99.90
16999;DHT22;10211;49.476;11.010;2023-02-14T04:49:58;1.70;99.90
16999;DHT22;10211;49.476;11.010;2023-02-14T04:52:25;1.80;99.90
16999;DHT22;10211;49.476;11.010;2023-02-14T04:54:52;1.70;99.90
16999;DHT22;10211;49.476;11.010;2023-02-14T04:57:19;1.70;99.90
16999;DHT22;10211;49.476;11.010;2023-02-14T04:59:47;1.70;99.90
16999;DHT22;10211;49.476;11.010;2023-02-14T05:02:14;1.70;99.90
16999;DHT22;10211;49.476;11.010;2023-02-14T05:04:40;1.80;99.90
16999;DHT22;10211;49.476;11.010;2023-02-14T05:07:07;1.70;99.90
16999;DHT22;10211;49.476;11.010;2023-02-14T05:09:34;1.80;99.90
16999;DHT22;10211;49.476;11.010;2023-02-14T05:12:00;1.80;99.90
16999;DHT22;10211;49.476;11.010;2023-02-14T05:14:27;1.80;99.90
16999;DHT22;10211;49.476;11.010;2023-02-14T05:16:56;1.80;99.90
16999;DHT22;10211;49.476;11.010;2023-02-14T05:19:23;1.80;99.90
16999;DHT22;10211;49.476;11.010;2023-02-14T05:21:49;1.80;99.90
16999;DHT22;10211;49.476;11.010;2023-02-14T05:24:16;1.80;99.90
16999;DHT22;10211;49.476;11.010;2023-02-14T05:26:44;1.80;99.90
16999;DHT22;10211;49.476;11.010;2023-02-14T05:29:11;1.80;99.90
16999;DHT22;10211;49.476;11.010;2023-02-14T05:31:37;1.80;99.90
16999;DHT22;10211;49.476;11.010;2023-02-14T05:34:05;1.80;99.90
16999;DHT22;10211;49.476;11.010;2023-02-14T05:36:32;1.80;99.90
16999;DHT22;10211;49.476;11.010;2023-02-14T05:38:59;1.80;99.90
16999;DHT22;10211;49.476;11.010;2023-02-14T05:41:28;1.70;99.90
16999;DHT22;10211;49.476;11.010;2023-02-14T05:43:55;1.70;99.90
16999;DHT22;10211;49.476;11.010;2023-02-14T05:46:21;1.80;99.90
16999;DHT22;10211;49.476;11.010;2023-02-14T05:48:48;1.70;99.90
16999;DHT22;10211;49.476;11.010;2023-02-14T05:51:16;1.80;99.90
16999;DHT22;10211;49.476;11.010;2023-02-14T05:53:43;1.70;99.90
16999;DHT22;10211;49.476;11.010;2023-02-14T05:56:09;1.70;99.90
16999;DHT22;10211;49.476;11.010;2023-02-14T05:58:36;1.70;99.90
16999;DHT22;10211;49.476;11.010;2023-02-14T06:01:04;1.60;99.90
16999;DHT22;10211;49.476;11.010;2023-02-14T06:03:31;1.70;99.90
16999;DHT22;10211;49.476;11.010;2023-02-14T06:05:58;1.60;99.90
16999;DHT22;10211;49.476;11.010;2023-02-14T06:08:26;1.70;99.90
16999;DHT22;10211;49.476;11.010;2023-02-14T06:10:52;1.70;99.90
16999;DHT22;10211;49.476;11.010;2023-02-14T06:13:19;1.70;99.90
16999;DHT22;10211;49.476;11.010;2023-02-14T06:15:46;1.70;99.90
16999;DHT22;10211;49.476;11.010;2023-02-14T06:18:12;1.70;99.90
16999;DHT22;10211;49.476;11.010;2023-02-14T06:20:39;1.70;99.90
16999;DHT22;10211;49.476;11.010;2023-02-14T06:23:06;1.70;99.90
16999;DHT22;10211;49.476;11.010;2023-02-14T06:25:34;1.70;99.90
16999;DHT22;10211;49.476;11.010;2023-02-14T06:28:01;1.70;99.90
16999;DHT22;10211;49.476;11.010;2023-02-14T06:30:27;1.70;99.90
16999;DHT22;10211;49.476;11.010;2023-02-14T06:32:54;1.70;99.90
16999;DHT22;10211;49.476;11.010;2023-02-14T06:35:21;1.70;99.90
16999;DHT22;10211;49.476;11.010;2023-02-14T06:37:48;1.80;99.90
16999;DHT22;10211;49.476;11.010;2023-02-14T06:40:15;1.80;99.90
16999;DHT22;10211;49.476;11.010;2023-02-14T06:42:45;1.80;99.90
16999;DHT22;10211;49.476;11.010;2023-02-14T06:45:11;1.70;99.90
16999;DHT22;10211;49.476;11.010;2023-02-14T06:47:38;1.80;99.90
16999;DHT22;10211;49.476;11.010;2023-02-14T06:50:06;1.80;99.90
16999;DHT22;10211;49.476;11.010;2023-02-14T06:52:36;1.80;99.90
16999;DHT22;10211;49.476;11.010;2023-02-14T06:55:02;1.80;99.90
16999;DHT22;10211;49.476;11.010;2023-02-14T06:57:29;1.70;99.90
16999;DHT22;10211;49.476;11.010;2023-02-14T06:59:57;1.80;99.90
16999;DHT22;10211;49.476;11.010;2023-02-14T07:02:24;1.70;99.90
16999;DHT22;10211;49.476;11.010;2023-02-14T07:04:50;1.70;99.90
16999;DHT22;10211;49.476;11.010;2023-02-14T07:07:17;1.80;99.90
16999;DHT22;10211;49.476;11.010;2023-02-14T07:09:45;1.80;99.90
16999;DHT22;10211;49.476;11.010;2023-02-14T07:12:12;1.80;99.90
16999;DHT22;10211;49.476;11.010;2023-02-14T07:14:39;1.80;99.90
16999;DHT22;10211;49.476;11.010;2023-02-14T07:17:07;1.80;99.90
16999;DHT22;10211;49.476;11.010;2023-02-14T07:19:34;1.80;99.90
16999;DHT22;10211;49.476;11.010;2023-02-14T07:22:00;1.80;99.90
16999;DHT22;10211;49.476;11.010;2023-02-14T07:24:27;1.80;99.90
16999;DHT22;10211;49.476;11.010;2023-02-14T07:26:54;1.80;99.90
16999;DHT22;10211;49.476;11.010;2023-02-14T07:29:20;1.80;99.90
16999;DHT22;10211;49.476;11.010;2023-02-14T07:31:47;1.80;99.90
16999;DHT22;10211;49.476;11.010;2023-02-14T07:34:15;1.70;99.90
16999;DHT22;10211;49.476;11.010;2023-02-14T07:36:42;1.70;99.90
16999;DHT22;10211;49.476;11.010;2023-02-14T07:39:09;1.70;99.90
16999;DHT22;10211;49.476;11.010;2023-02-14T07:41:36;1.70;99.90
16999;DHT22;10211;49.476;11.010;2023-02-14T07:44:03;1.80;99.90
16999;DHT22;10211;49.476;11.010;2023-02-14T07:46:30;1.80;99.90
16999;DHT22;10211;49.476;11.010;2023-02-14T07:48:56;1.80;99.90
16999;DHT22;10211;49.476;11.010;2023-02-14T07:51:24;1.80;99.90
16999;DHT22;10211;49.476;11.010;2023-02-14T07:53:51;1.80;99.90
16999;DHT22;10211;49.476;11.010;2023-02-14T07:56:24;1.90;99.90
16999;DHT22;10211;49.476;11.010;2023-02-14T07:58:50;1.90;99.90
16999;DHT22;10211;49.476;11.010;2023-02-14T08:01:17;1.90;99.90
16999;DHT22;10211;49.476;11.010;2023-02-14T08:03:45;2.00;99.90
16999;DHT22;10211;49.476;11.010;2023-02-14T08:06:14;2.00;99.90
16999;DHT22;10211;49.476;11.010;2023-02-14T08:08:43;2.00;99.90
16999;DHT22;10211;49.476;11.010;2023-02-14T08:11:10;2.00;99.90
16999;DHT22;10211;49.476;11.010;2023-02-14T08:13:57;2.00;99.90
16999;DHT22;10211;49.476;11.010;2023-02-14T08:16:24;2.00;99.90
16999;DHT22;10211;49.476;11.010;2023-02-14T08:18:50;2.00;99.90
16999;DHT22;10211;49.476;11.010;2023-02-14T08:21:17;2.00;99.90
16999;DHT22;10211;49.476;11.010;2023-02-14T08:23:45;2.10;99.90
16999;DHT22;10211;49.476;11.010;2023-02-14T08:26:12;2.10;99.90
16999;DHT22;10211;49.476;11.010;2023-02-14T08:28:38;2.10;99.90
16999;DHT22;10211;49.476;11.010;2023-02-14T08:31:05;2.10;99.90
16999;DHT22;10211;49.476;11.010;2023-02-14T08:33:32;2.10;99.90
16999;DHT22;10211;49.476;11.010;2023-02-14T08:35:59;2.10;99.90
16999;DHT22;10211;49.476;11.010;2023-02-14T08:38:25;2.10;99.90
16999;DHT22;10211;49.476;11.010;2023-02-14T08:40:54;2.20;99.90
16999;DHT22;10211;49.476;11.010;2023-02-14T08:43:24;2.20;99.90
16999;DHT22;10211;49.476;11.010;2023-02-14T08:45:52;2.20;99.90
16999;DHT22;10211;49.476;11.010;2023-02-14T08:48:19;2.30;99.90
16999;DHT22;10211;49.476;11.010;2023-02-14T08:50:47;2.30;99.90
16999;DHT22;10211;49.476;11.010;2023-02-14T08:53:15;2.20;99.90
16999;DHT22;10211;49.476;11.010;2023-02-14T08:55:41;2.20;99.90
16999;DHT22;10211;49.476;11.010;2023-02-14T08:58:09;2.30;99.90
16999;DHT22;10211;49.476;11.010;2023-02-14T09:00:36;2.30;99.90
16999;DHT22;10211;49.476;11.010;2023-02-14T09:03:03;2.40;99.90
16999;DHT22;10211;49.476;11.010;2023-02-14T09:05:30;2.50;99.90
16999;DHT22;10211;49.476;11.010;2023-02-14T09:07:56;2.50;99.90
16999;DHT22;10211;49.476;11.010;2023-02-14T09:10:24;2.60;99.90
16999;DHT22;10211;49.476;11.010;2023-02-14T09:12:51;2.60;99.90
16999;DHT22;10211;49.476;11.010;2023-02-14T09:15:19;2.70;99.90
16999;DHT22;10211;49.476;11.010;2023-02-14T09:17:46;2.80;99.90
16999;DHT22;10211;49.476;11.010;2023-02-14T09:20:14;2.80;99.90
16999;DHT22;10211;49.476;11.010;2023-02-14T09:22:41;2.80;99.90
16999;DHT22;10211;49.476;11.010;2023-02-14T09:25:09;2.80;99.90
16999;DHT22;10211;49.476;11.010;2023-02-14T09:27:36;2.90;99.90
16999;DHT22;10211;49.476;11.010;2023-02-14T09:30:03;3.10;99.90
16999;DHT22;10211;49.476;11.010;2023-02-14T09:32:32;3.20;99.90
16999;DHT22;10211;49.476;11.010;2023-02-14T09:34:59;3.30;99.90
16999;DHT22;10211;49.476;11.010;2023-02-14T09:37:26;3.30;99.90
16999;DHT22;10211;49.476;11.010;2023-02-14T09:40:12;3.30;99.90
16999;DHT22;10211;49.476;11.010;2023-02-14T09:42:48;3.30;99.90
16999;DHT22;10211;49.476;11.010;2023-02-14T09:45:19;3.30;99.90
16999;DHT22;10211;49.476;11.010;2023-02-14T09:47:51;3.40;99.90
16999;DHT22;10211;49.476;11.010;2023-02-14T09:50:24;3.50;99.90
16999;DHT22;10211;49.476;11.010;2023-02-14T09:52:55;3.50;99.90
16999;DHT22;10211;49.476;11.010;2023-02-14T09:55:26;3.50;99.90
16999;DHT22;10211;49.476;11.010;2023-02-14T09:58:02;3.40;99.90
16999;DHT22;10211;49.476;11.010;2023-02-14T10:00:34;3.40;99.90
16999;DHT22;10211;49.476;11.010;2023-02-14T10:03:13;3.50;99.90
16999;DHT22;10211;49.476;11.010;2023-02-14T10:05:45;3.60;99.90
16999;DHT22;10211;49.476;11.010;2023-02-14T10:08:22;3.70;99.90
16999;DHT22;10211;49.476;11.010;2023-02-14T10:11:01;3.80;99.90
16999;DHT22;10211;49.476;11.010;2023-02-14T10:13:34;3.80;99.90
16999;DHT22;10211;49.476;11.010;2023-02-14T10:16:06;3.80;99.90
16999;DHT22;10211;49.476;11.010;2023-02-14T10:18:39;4.00;99.90
16999;DHT22;10211;49.476;11.010;2023-02-14T10:21:06;4.10;99.90
16999;DHT22;10211;49.476;11.010;2023-02-14T10:23:41;4.10;99.90
16999;DHT22;10211;49.476;11.010;2023-02-14T10:26:13;4.00;99.90
16999;DHT22;10211;49.476;11.010;2023-02-14T10:28:44;4.10;99.90
16999;DHT22;10211;49.476;11.010;2023-02-14T10:31:19;4.20;99.90
16999;DHT22;10211;49.476;11.010;2023-02-14T10:33:52;4.20;99.90
16999;DHT22;10211;49.476;11.010;2023-02-14T10:36:29;4.20;99.90
16999;DHT22;10211;49.476;11.010;2023-02-14T10:39:05;4.30;99.90
16999;DHT22;10211;49.476;11.010;2023-02-14T10:41:42;4.30;99.90
16999;DHT22;10211;49.476;11.010;2023-02-14T10:44:23;4.40;99.90
16999;DHT22;10211;49.476;11.010;2023-02-14T10:46:55;4.40;99.90
16999;DHT22;10211;49.476;11.010;2023-02-14T10:49:31;4.30;99.90
16999;DHT22;10211;49.476;11.010;2023-02-14T10:52:06;4.40;99.90
16999;DHT22;10211;49.476;11.010;2023-02-14T10:54:37;4.40;99.90
16999;DHT22;10211;49.476;11.010;2023-02-14T10:57:09;4.50;99.90
16999;DHT22;10211;49.476;11.010;2023-02-14T10:59:43;4.60;99.90
16999;DHT22;10211;49.476;11.010;2023-02-14T11:02:15;4.70;99.90
16999;DHT22;10211;49.476;11.010;2023-02-14T11:04:44;4.60;99.90
16999;DHT22;10211;49.476;11.010;2023-02-14T11:07:12;4.70;99.90
16999;DHT22;10211;49.476;11.010;2023-02-14T11:09:39;4.80;99.90
16999;DHT22;10211;49.476;11.010;2023-02-14T11:12:06;4.80;99.90
16999;DHT22;10211;49.476;11.010;2023-02-14T11:14:35;4.80;99.90
16999;DHT22;10211;49.476;11.010;2023-02-14T11:17:27;4.80;99.90
16999;DHT22;10211;49.476;11.010;2023-02-14T11:20:00;4.70;99.90
16999;DHT22;10211;49.476;11.010;2023-02-14T11:22:31;4.60;99.90
16999;DHT22;10211;49.476;11.010;2023-02-14T11:25:03;4.70;99.90
16999;DHT22;10211;49.476;11.010;2023-02-14T11:27:30;4.80;99.90
16999;DHT22;10211;49.476;11.010;2023-02-14T11:29:58;4.70;99.90
16999;DHT22;10211;49.476;11.010;2023-02-14T11:32:28;4.80;99.90
16999;DHT22;10211;49.476;11.010;2023-02-14T11:35:00;4.90;99.90
16999;DHT22;10211;49.476;11.010;2023-02-14T11:37:31;5.10;99.90
16999;DHT22;10211;49.476;11.010;2023-02-14T11:40:00;5.20;99.90
16999;DHT22;10211;49.476;11.010;2023-02-14T11:42:40;5.30;99.90
16999;DHT22;10211;49.476;11.010;2023-02-14T11:45:29;5.40;99.90
16999;DHT22;10211;49.476;11.010;2023-02-14T11:48:14;5.40;99.90
16999;DHT22;10211;49.476;11.010;2023-02-14T11:50:53;5.40;99.90
16999;DHT22;10211;49.476;11.010;2023-02-14T11:53:23;5.40;99.90
16999;DHT22;10211;49.476;11.010;2023-02-14T11:55:52;5.50;99.90
16999;DHT22;10211;49.476;11.010;2023-02-14T11:58:31;5.60;99.90
16999;DHT22;10211;49.476;11.010;2023-02-14T12:01:01;5.80;99.90
16999;DHT22;10211;49.476;11.010;2023-02-14T12:03:32;5.80;99.90
16999;DHT22;10211;49.476;11.010;2023-02-14T12:06:03;5.90;99.90
16999;DHT22;10211;49.476;11.010;2023-02-14T12:08:30;5.90;99.90
16999;DHT22;10211;49.476;11.010;2023-02-14T12:11:02;5.90;99.90
16999;DHT22;10211;49.476;11.010;2023-02-14T12:13:29;5.90;99.90
16999;DHT22;10211;49.476;11.010;2023-02-14T12:15:57;5.90;99.90
16999;DHT22;10211;49.476;11.010;2023-02-14T12:18:48;5.90;99.90
16999;DHT22;10211;49.476;11.010;2023-02-14T12:21:39;6.00;99.90
16999;DHT22;10211;49.476;11.010;2023-02-14T12:24:16;6.10;99.90
16999;DHT22;10211;49.476;11.010;2023-02-14T12:26:48;6.10;99.90
16999;DHT22;10211;49.476;11.010;2023-02-14T12:29:20;6.10;99.90
16999;DHT22;10211;49.476;11.010;2023-02-14T12:31:50;6.10;99.90
16999;DHT22;10211;49.476;11.010;2023-02-14T12:34:18;6.20;99.90
16999;DHT22;10211;49.476;11.010;2023-02-14T12:39:52;6.20;99.90
16999;DHT22;10211;49.476;11.010;2023-02-14T12:42:32;6.20;99.90
16999;DHT22;10211;49.476;11.010;2023-02-14T12:45:08;6.20;99.90
16999;DHT22;10211;49.476;11.010;2023-02-14T12:47:43;6.30;99.90
16999;DHT22;10211;49.476;11.010;2023-02-14T12:50:28;6.50;99.90
16999;DHT22;10211;49.476;11.010;2023-02-14T12:53:18;6.60;99.90
16999;DHT22;10211;49.476;11.010;2023-02-14T12:55:56;6.70;99.90
16999;DHT22;10211;49.476;11.010;2023-02-14T12:58:32;6.80;99.90
16999;DHT22;10211;49.476;11.010;2023-02-14T13:01:15;6.70;99.90
16999;DHT22;10211;49.476;11.010;2023-02-14T13:04:08;6.70;99.90
16999;DHT22;10211;49.476;11.010;2023-02-14T13:06:44;6.60;99.90
16999;DHT22;10211;49.476;11.010;2023-02-14T13:09:24;6.50;99.90
16999;DHT22;10211;49.476;11.010;2023-02-14T13:12:03;6.60;99.90
16999;DHT22;10211;49.476;11.010;2023-02-14T13:14:59;6.70;99.90
16999;DHT22;10211;49.476;11.010;2023-02-14T13:17:35;6.50;99.90
16999;DHT22;10211;49.476;11.010;2023-02-14T13:20:20;6.20;99.90
16999;DHT22;10211;49.476;11.010;2023-02-14T13:22:51;6.20;99.90
16999;DHT22;10211;49.476;11.010;2023-02-14T13:25:25;6.10;99.90
16999;DHT22;10211;49.476;11.010;2023-02-14T13:27:57;6.10;99.90
16999;DHT22;10211;49.476;11.010;2023-02-14T13:30:27;6.10;99.90
16999;DHT22;10211;49.476;11.010;2023-02-14T13:32:57;6.10;99.90
16999;DHT22;10211;49.476;11.010;2023-02-14T13:35:28;6.00;99.90
16999;DHT22;10211;49.476;11.010;2023-02-14T13:37:59;6.10;99.90
16999;DHT22;10211;49.476;11.010;2023-02-14T13:40:29;6.10;99.90
16999;DHT22;10211;49.476;11.010;2023-02-14T13:42:57;6.20;99.90
16999;DHT22;10211;49.476;11.010;2023-02-14T13:45:49;6.30;99.90
16999;DHT22;10211;49.476;11.010;2023-02-14T13:48:18;6.50;99.90
16999;DHT22;10211;49.476;11.010;2023-02-14T13:50:50;6.70;99.90
16999;DHT22;10211;49.476;11.010;2023-02-14T13:53:30;6.70;99.90
16999;DHT22;10211;49.476;11.010;2023-02-14T13:55:59;6.60;99.90
16999;DHT22;10211;49.476;11.010;2023-02-14T13:58:26;6.60;99.90
16999;DHT22;10211;49.476;11.010;2023-02-14T14:00:54;6.50;99.90
16999;DHT22;10211;49.476;11.010;2023-02-14T14:03:53;6.40;99.90
16999;DHT22;10211;49.476;11.010;2023-02-14T14:06:20;6.40;99.90
16999;DHT22;10211;49.476;11.010;2023-02-14T14:08:49;6.30;99.90
16999;DHT22;10211;49.476;11.010;2023-02-14T14:14:34;6.60;99.90
16999;DHT22;10211;49.476;11.010;2023-02-14T14:17:16;6.90;99.90
16999;DHT22;10211;49.476;11.010;2023-02-14T14:19:44;7.20;99.90
16999;DHT22;10211;49.476;11.010;2023-02-14T14:22:14;7.20;99.90
16999;DHT22;10211;49.476;11.010;2023-02-14T14:24:54;7.10;99.90
16999;DHT22;10211;49.476;11.010;2023-02-14T14:27:23;7.00;99.90
16999;DHT22;10211;49.476;11.010;2023-02-14T14:29:53;6.80;99.90
16999;DHT22;10211;49.476;11.010;2023-02-14T14:32:26;6.70;99.90
16999;DHT22;10211;49.476;11.010;2023-02-14T14:34:55;6.70;99.90
16999;DHT22;10211;49.476;11.010;2023-02-14T14:37:24;6.80;99.90
16999;DHT22;10211;49.476;11.010;2023-02-14T14:39:52;6.90;99.90
16999;DHT22;10211;49.476;11.010;2023-02-14T14:42:20;7.10;99.90
16999;DHT22;10211;49.476;11.010;2023-02-14T14:44:50;7.00;99.90
16999;DHT22;10211;49.476;11.010;2023-02-14T14:47:21;7.00;99.90
16999;DHT22;10211;49.476;11.010;2023-02-14T14:49:50;7.00;99.90
16999;DHT22;10211;49.476;11.010;2023-02-14T14:52:27;7.00;99.90
16999;DHT22;10211;49.476;11.010;2023-02-14T14:54:55;7.00;99.90
16999;DHT22;10211;49.476;11.010;2023-02-14T14:57:22;6.90;99.90
16999;DHT22;10211;49.476;11.010;2023-02-14T15:00:02;6.80;99.90
16999;DHT22;10211;49.476;11.010;2023-02-14T15:02:31;6.70;99.90
16999;DHT22;10211;49.476;11.010;2023-02-14T15:05:12;6.50;99.90
16999;DHT22;10211;49.476;11.010;2023-02-14T15:07:39;6.40;99.90
16999;DHT22;10211;49.476;11.010;2023-02-14T15:10:20;6.30;99.90
16999;DHT22;10211;49.476;11.010;2023-02-14T15:12:49;6.20;99.90
16999;DHT22;10211;49.476;11.010;2023-02-14T15:15:34;6.10;99.90
16999;DHT22;10211;49.476;11.010;2023-02-14T15:18:05;6.00;99.90
16999;DHT22;10211;49.476;11.010;2023-02-14T15:20:32;5.90;99.90
16999;DHT22;10211;49.476;11.010;2023-02-14T15:23:01;5.80;99.90
16999;DHT22;10211;49.476;11.010;2023-02-14T15:25:31;5.80;99.90
16999;DHT22;10211;49.476;11.010;2023-02-14T15:27:58;5.70;99.90
16999;DHT22;10211;49.476;11.010;2023-02-14T15:30:27;5.60;99.90
16999;DHT22;10211;49.476;11.010;2023-02-14T15:32:59;5.60;99.90
16999;DHT22;10211;49.476;11.010;2023-02-14T15:35:29;5.50;99.90
16999;DHT22;10211;49.476;11.010;2023-02-14T15:37:59;5.40;99.90
16999;DHT22;10211;49.476;11.010;2023-02-14T15:40:28;5.40;99.90
16999;DHT22;10211;49.476;11.010;2023-02-14T15:42:57;5.30;99.90
16999;DHT22;10211;49.476;11.010;2023-02-14T15:45:29;5.20;99.90
16999;DHT22;10211;49.476;11.010;2023-02-14T15:47:57;5.10;99.90
16999;DHT22;10211;49.476;11.010;2023-02-14T15:50:27;5.00;99.90
16999;DHT22;10211;49.476;11.010;2023-02-14T15:53:01;5.00;99.90
16999;DHT22;10211;49.476;11.010;2023-02-14T15:55:29;4.90;99.90
16999;DHT22;10211;49.476;11.010;2023-02-14T15:57:59;4.80;99.90
16999;DHT22;10211;49.476;11.010;2023-02-14T16:00:27;4.80;99.90
16999;DHT22;10211;49.476;11.010;2023-02-14T16:02:55;4.70;99.90
16999;DHT22;10211;49.476;11.010;2023-02-14T16:05:25;4.60;99.90
16999;DHT22;10211;49.476;11.010;2023-02-14T16:08:02;4.50;99.90